createdAt,value
2022-10-11T00:00:36.778Z,7.48
2022-10-11T00:03:23.575Z,7.42
2022-10-11T00:06:10.529Z,7.38
2022-10-11T00:08:57.200Z,7.35
2022-10-11T00:11:26.939Z,7.33
2022-10-11T00:13:56.989Z,7.30
2022-10-11T00:16:23.699Z,7.27
2022-10-11T00:18:50.461Z,7.22
2022-10-11T00:21:17.619Z,7.21
2022-10-11T00:23:44.463Z,7.18
2022-10-11T00:26:14.369Z,7.15
2022-10-11T00:28:43.826Z,7.12
2022-10-11T00:31:15.784Z,7.11
2022-10-11T00:33:42.747Z,7.10
2022-10-11T00:36:13.622Z,7.09
2022-10-11T00:38:41.124Z,7.07
2022-10-11T00:41:07.847Z,7.07
2022-10-11T00:43:35.590Z,7.06
2022-10-11T00:46:25.536Z,7.05
2022-10-11T00:49:26.966Z,7.03
2022-10-11T00:52:03.399Z,6.99
2022-10-11T00:54:36.203Z,7.00
2022-10-11T00:57:12.985Z,7.02
2022-10-11T00:59:45.388Z,7.04
2022-10-11T01:02:14.344Z,7.01
2022-10-11T01:05:25.146Z,7.03
2022-10-11T01:07:48.504Z,7.01
2022-10-11T01:10:15.565Z,6.98
2022-10-11T01:13:33.494Z,6.97
2022-10-11T01:16:35.386Z,6.94
2022-10-11T01:19:15.506Z,6.91
2022-10-11T01:22:28.782Z,6.90
2022-10-11T01:25:51.272Z,6.86
2022-10-11T01:28:38.831Z,6.82
2022-10-11T01:31:17.714Z,6.81
2022-10-11T01:34:02.136Z,6.77
2022-10-11T01:36:32.233Z,6.74
2022-10-11T01:39:05.080Z,6.70
2022-10-11T01:41:39.787Z,6.67
2022-10-11T01:44:09.242Z,6.64
2022-10-11T01:46:37.205Z,6.62
2022-10-11T01:49:05.619Z,6.60
2022-10-11T01:51:42.021Z,6.58
2022-10-11T01:55:08.788Z,6.56
2022-10-11T01:57:58.688Z,6.52
2022-10-11T02:00:34.989Z,6.49
2022-10-11T02:03:33.944Z,6.44
2022-10-11T02:06:32.582Z,6.41
2022-10-11T02:09:08.459Z,6.34
2022-10-11T02:11:38.205Z,6.34
2022-10-11T02:14:18.614Z,6.40
2022-10-11T02:16:54.293Z,6.44
2022-10-11T02:19:32.434Z,6.46
2022-10-11T02:22:09.961Z,6.48
2022-10-11T02:24:44.529Z,6.48
2022-10-11T02:27:14.670Z,6.47
2022-10-11T02:29:46.361Z,6.46
2022-10-11T02:32:17.145Z,6.46
2022-10-11T02:34:53.461Z,6.44
2022-10-11T02:37:41.576Z,6.41
2022-10-11T02:40:29.437Z,6.37
2022-10-11T02:43:13.827Z,6.33
2022-10-11T02:45:50.894Z,6.30
2022-10-11T02:48:19.231Z,6.26
2022-10-11T02:50:46.398Z,6.23
2022-10-11T02:53:13.444Z,6.22
2022-10-11T02:55:40.455Z,6.16
2022-10-11T02:58:07.274Z,6.15
2022-10-11T03:00:34.024Z,6.12
2022-10-11T03:03:00.740Z,6.10
2022-10-11T03:05:27.606Z,6.06
2022-10-11T03:07:54.309Z,6.04
2022-10-11T03:10:21.172Z,5.98
2022-10-11T03:12:48.560Z,5.91
2022-10-11T03:15:15.517Z,5.86
2022-10-11T03:17:42.244Z,5.81
2022-10-11T03:20:09.634Z,5.74
2022-10-11T03:22:36.552Z,5.69
2022-10-11T03:25:04.800Z,5.70
2022-10-11T03:27:33.330Z,5.72
2022-10-11T03:30:00.433Z,5.75
2022-10-11T03:32:28.432Z,5.73
2022-10-11T03:34:55.204Z,5.73
2022-10-11T03:37:22.298Z,5.71
2022-10-11T03:39:49.065Z,5.68
2022-10-11T03:42:15.818Z,5.66
2022-10-11T03:44:42.617Z,5.64
2022-10-11T03:47:12.839Z,5.61
2022-10-11T03:49:43.442Z,5.61
2022-10-11T03:52:11.124Z,5.61
2022-10-11T03:54:38.066Z,5.60
2022-10-11T03:57:05.191Z,5.60
2022-10-11T03:59:32.088Z,5.59
2022-10-11T04:01:59.361Z,5.59
2022-10-11T04:04:26.290Z,5.59
2022-10-11T04:06:53.567Z,5.59
2022-10-11T04:09:25.343Z,5.56
2022-10-11T04:11:52.320Z,5.54
2022-10-11T04:14:19.188Z,5.49
2022-10-11T04:16:45.981Z,5.42
2022-10-11T04:19:12.820Z,5.37
2022-10-11T04:21:39.587Z,5.37
2022-10-11T04:24:06.573Z,5.44
2022-10-11T04:26:33.407Z,5.44
2022-10-11T04:29:00.408Z,5.42
2022-10-11T04:31:27.214Z,5.36
2022-10-11T04:33:53.988Z,5.34
2022-10-11T04:36:20.724Z,5.29
2022-10-11T04:38:47.796Z,5.26
2022-10-11T04:41:16.443Z,5.22
2022-10-11T04:43:43.383Z,5.21
2022-10-11T04:46:11.078Z,5.21
2022-10-11T04:48:38.650Z,5.21
2022-10-11T04:51:05.899Z,5.20
2022-10-11T04:53:32.666Z,5.20
2022-10-11T04:56:07.727Z,5.22
2022-10-11T04:58:36.654Z,5.24
2022-10-11T05:01:04.842Z,5.24
2022-10-11T05:03:34.145Z,5.26
2022-10-11T05:06:05.968Z,5.28
2022-10-11T05:08:34.519Z,5.30
2022-10-11T05:11:07.721Z,5.28
2022-10-11T05:13:37.212Z,5.27
2022-10-11T05:16:10.688Z,5.28
2022-10-11T05:18:40.455Z,5.29
2022-10-11T05:21:18.401Z,5.30
2022-10-11T05:23:49.790Z,5.28
2022-10-11T05:26:20.241Z,5.23
2022-10-11T05:28:48.497Z,5.19
2022-10-11T05:31:17.655Z,5.17
2022-10-11T05:33:46.120Z,5.19
2022-10-11T05:36:14.724Z,5.19
2022-10-11T05:38:43.554Z,5.15
2022-10-11T05:41:16.857Z,5.09
2022-10-11T05:43:45.883Z,5.04
2022-10-11T05:46:14.958Z,4.98
2022-10-11T05:49:01.679Z,4.94
2022-10-11T05:51:32.011Z,4.91
2022-10-11T05:53:59.029Z,4.87
2022-10-11T05:56:26.777Z,4.87
2022-10-11T05:58:54.959Z,4.90
2022-10-11T06:01:27.997Z,4.87
2022-10-11T06:03:55.877Z,4.85
2022-10-11T06:06:23.506Z,4.84
2022-10-11T06:08:52.497Z,4.87
2022-10-11T06:11:25.251Z,4.88
2022-10-11T06:13:58.091Z,4.88
2022-10-11T06:16:26.567Z,4.93
2022-10-11T06:18:57.639Z,4.99
2022-10-11T06:21:24.818Z,5.06
2022-10-11T06:23:58.252Z,5.10
2022-10-11T06:26:25.452Z,5.13
2022-10-11T06:28:52.994Z,5.17
2022-10-11T06:31:20.101Z,5.20
2022-10-11T06:33:47.058Z,5.21
2022-10-11T06:36:16.715Z,5.22
2022-10-11T06:38:45.491Z,5.27
2022-10-11T06:41:25.789Z,5.34
2022-10-11T06:43:57.094Z,5.41
2022-10-11T06:46:28.500Z,5.50
2022-10-11T06:48:58.253Z,5.55
2022-10-11T06:51:30.399Z,5.64
2022-10-11T06:54:01.759Z,5.71
2022-10-11T06:56:34.120Z,5.81
2022-10-11T06:59:05.575Z,5.94
2022-10-11T07:01:35.731Z,6.09
2022-10-11T07:04:06.620Z,6.28
2022-10-11T07:06:41.847Z,6.37
2022-10-11T07:09:15.093Z,6.46
2022-10-11T07:11:48.874Z,6.53
2022-10-11T07:14:20.132Z,6.62
2022-10-11T07:16:57.630Z,6.68
2022-10-11T07:19:27.685Z,6.74
2022-10-11T07:21:57.633Z,6.80
2022-10-11T07:24:25.077Z,6.84
2022-10-11T07:26:51.896Z,6.90
2022-10-11T07:29:19.034Z,6.94
2022-10-11T07:31:45.929Z,7.00
2022-10-11T07:34:12.719Z,7.05
2022-10-11T07:36:39.831Z,7.11
2022-10-11T07:39:08.751Z,7.15
2022-10-11T07:41:36.660Z,7.20
2022-10-11T07:44:03.552Z,7.26
2022-10-11T07:46:30.645Z,7.30
2022-10-11T07:48:57.473Z,7.36
2022-10-11T07:51:25.067Z,7.41
2022-10-11T07:53:56.364Z,7.49
2022-10-11T07:56:27.665Z,7.56
2022-10-11T07:58:58.670Z,7.62
2022-10-11T08:01:40.743Z,7.68
2022-10-11T08:04:07.569Z,7.77
2022-10-11T08:06:36.483Z,7.89
2022-10-11T08:09:04.255Z,8.03
2022-10-11T08:11:40.223Z,8.17
2022-10-11T08:14:09.152Z,8.31
2022-10-11T08:16:38.916Z,8.46
2022-10-11T08:19:07.403Z,8.60
2022-10-11T08:21:34.812Z,8.69
2022-10-11T08:24:04.250Z,8.79
2022-10-11T08:26:32.210Z,8.88
2022-10-11T08:29:03.370Z,8.96
2022-10-11T08:31:30.615Z,9.04
2022-10-11T08:33:57.496Z,9.13
2022-10-11T08:36:24.472Z,9.23
2022-10-11T08:38:51.336Z,9.36
2022-10-11T08:41:38.436Z,9.46
2022-10-11T08:44:51.747Z,9.58
2022-10-11T08:47:42.868Z,9.73
2022-10-11T08:50:20.769Z,9.81
2022-10-11T08:52:52.526Z,9.91
2022-10-11T08:55:38.238Z,10.05
2022-10-11T08:58:05.132Z,10.16
2022-10-11T09:00:36.309Z,10.24
2022-10-11T09:03:21.957Z,10.33
2022-10-11T09:06:16.224Z,10.42
2022-10-11T09:09:40.009Z,10.57
2022-10-11T09:12:29.519Z,10.75
2022-10-11T09:15:26.924Z,10.88
2022-10-11T09:18:49.847Z,11.00
2022-10-11T09:21:42.001Z,11.13
2022-10-11T09:24:31.838Z,11.22
2022-10-11T09:27:14.155Z,11.30
2022-10-11T09:29:55.965Z,11.38
2022-10-11T09:32:28.807Z,11.48
2022-10-11T09:35:10.504Z,11.51
2022-10-11T09:37:57.745Z,11.52
2022-10-11T09:41:07.781Z,11.52
2022-10-11T09:43:34.732Z,11.60
2022-10-11T09:46:01.831Z,11.73
2022-10-11T09:48:41.555Z,11.85
2022-10-11T09:51:29.143Z,11.91
2022-10-11T09:54:05.645Z,11.98
2022-10-11T09:56:40.195Z,12.10
2022-10-11T09:59:27.751Z,12.21
2022-10-11T10:02:12.781Z,12.29
2022-10-11T10:05:16.451Z,12.38
2022-10-11T10:08:10.870Z,12.44
2022-10-11T10:10:48.760Z,12.54
2022-10-11T10:13:29.695Z,12.66
2022-10-11T10:15:59.227Z,12.80
2022-10-11T10:18:42.561Z,12.87
2022-10-11T10:21:14.978Z,12.95
2022-10-11T10:23:43.173Z,13.03
2022-10-11T10:26:20.471Z,13.19
2022-10-11T10:28:59.272Z,13.31
2022-10-11T10:32:12.997Z,13.37
2022-10-11T10:34:41.482Z,13.40
2022-10-11T10:37:54.165Z,13.47
2022-10-11T10:40:41.310Z,13.56
2022-10-11T10:43:18.699Z,13.68
2022-10-11T10:46:16.599Z,13.83
2022-10-11T10:52:20.709Z,14.01
2022-10-11T10:55:14.666Z,14.09
2022-10-11T10:58:07.122Z,14.18
2022-10-11T11:00:47.545Z,14.24
2022-10-11T11:03:32.219Z,14.32
2022-10-11T11:06:08.343Z,14.41
2022-10-11T11:09:00.036Z,14.43
2022-10-11T11:12:02.973Z,14.35
2022-10-11T11:14:41.581Z,14.38
2022-10-11T11:17:29.454Z,14.47
2022-10-11T11:20:17.082Z,14.57
2022-10-11T11:23:10.281Z,14.71
2022-10-11T11:25:51.185Z,14.70
2022-10-11T11:29:06.325Z,14.75
2022-10-11T11:32:05.030Z,14.79
2022-10-11T11:35:03.276Z,14.81
2022-10-11T11:37:42.328Z,14.86
2022-10-11T11:40:21.331Z,14.86
2022-10-11T11:43:07.168Z,14.90
2022-10-11T11:45:51.285Z,15.02
2022-10-11T11:48:24.718Z,15.26
2022-10-11T11:51:07.948Z,15.49
2022-10-11T11:54:15.924Z,15.66
2022-10-11T11:56:51.252Z,15.83
2022-10-11T11:59:37.376Z,15.97
2022-10-11T12:02:51.715Z,16.02
2022-10-11T12:05:27.809Z,16.13
2022-10-11T12:08:03.452Z,16.29
2022-10-11T12:10:53.428Z,16.48
2022-10-11T12:13:32.471Z,16.51
2022-10-11T12:16:21.490Z,16.37
2022-10-11T12:19:02.960Z,16.24
2022-10-11T12:21:35.004Z,16.14
2022-10-11T12:24:20.049Z,16.07
2022-10-11T12:26:54.512Z,16.01
2022-10-11T12:29:48.712Z,15.87
2022-10-11T12:32:27.584Z,15.77
2022-10-11T12:35:30.078Z,15.91
2022-10-11T12:38:37.169Z,16.07
2022-10-11T12:41:09.865Z,16.27
2022-10-11T12:44:07.685Z,16.24
2022-10-11T12:47:01.588Z,16.06
2022-10-11T12:49:49.759Z,16.03
2022-10-11T12:52:27.601Z,16.03
2022-10-11T12:55:12.517Z,15.97
2022-10-11T12:58:05.978Z,15.89
2022-10-11T13:01:02.772Z,15.85
2022-10-11T13:03:50.753Z,16.00
2022-10-11T13:06:45.633Z,16.20
2022-10-11T13:09:35.004Z,16.28
2022-10-11T13:12:25.870Z,16.25
2022-10-11T13:15:07.005Z,16.11
2022-10-11T13:17:39.089Z,16.00
2022-10-11T13:20:28.440Z,15.88
2022-10-11T13:22:57.358Z,15.76
2022-10-11T13:25:36.882Z,15.63
2022-10-11T13:28:09.355Z,15.59
2022-10-11T13:30:42.415Z,15.55
2022-10-11T13:33:25.425Z,15.54
2022-10-11T13:35:53.767Z,15.48
2022-10-11T13:38:27.457Z,15.42
2022-10-11T13:40:58.179Z,15.33
2022-10-11T13:43:31.024Z,15.29
2022-10-11T13:46:01.800Z,15.31
2022-10-11T13:48:31.839Z,15.36
2022-10-11T13:51:28.781Z,15.55
2022-10-11T13:54:06.208Z,15.58
2022-10-11T13:56:46.206Z,15.62
2022-10-11T13:59:23.917Z,15.69
2022-10-11T14:02:00.128Z,15.74
2022-10-11T14:04:29.924Z,15.78
2022-10-11T14:07:03.292Z,15.80
2022-10-11T14:09:38.510Z,15.78
2022-10-11T14:12:43.191Z,15.78
2022-10-11T14:15:36.013Z,15.85
2022-10-11T14:18:49.807Z,16.21
2022-10-11T14:21:19.261Z,16.59
2022-10-11T14:24:10.533Z,16.91
2022-10-11T14:26:39.924Z,17.24
2022-10-11T14:29:32.788Z,17.57
2022-10-11T14:32:05.848Z,18.07
2022-10-11T14:34:34.507Z,18.50
2022-10-11T14:37:01.269Z,18.77
2022-10-11T14:39:31.927Z,19.06
2022-10-11T14:41:59.389Z,19.23
2022-10-11T14:44:26.364Z,19.29
2022-10-11T14:46:54.762Z,19.43
2022-10-11T14:49:26.627Z,19.69
2022-10-11T14:51:57.385Z,19.91
2022-10-11T14:54:27.063Z,20.08
2022-10-11T14:56:57.141Z,20.31
2022-10-11T14:59:31.628Z,20.50
2022-10-11T15:01:58.406Z,20.64
2022-10-11T15:04:27.197Z,20.82
2022-10-11T15:06:56.508Z,20.86
2022-10-11T15:09:28.267Z,20.83
2022-10-11T15:11:55.753Z,20.90
2022-10-11T15:14:23.767Z,20.95
2022-10-11T15:16:50.984Z,20.76
2022-10-11T15:19:22.351Z,20.46
2022-10-11T15:21:49.822Z,20.15
2022-10-11T15:24:19.942Z,19.84
2022-10-11T15:26:48.052Z,19.62
2022-10-11T15:29:17.919Z,19.16
2022-10-11T15:31:46.046Z,18.77
2022-10-11T15:34:12.802Z,18.56
2022-10-11T15:36:39.640Z,18.40
2022-10-11T15:39:32.511Z,18.11
2022-10-11T15:41:59.625Z,18.00
2022-10-11T15:44:26.554Z,17.97
2022-10-11T15:46:53.530Z,17.92
2022-10-11T15:49:20.596Z,17.81
2022-10-11T15:51:47.496Z,17.70
2022-10-11T15:54:14.190Z,17.68
2022-10-11T15:56:41.085Z,17.58
2022-10-11T15:59:11.585Z,17.47
2022-10-11T16:01:38.411Z,17.34
2022-10-11T16:04:05.470Z,17.18
2022-10-11T16:06:33.293Z,17.06
2022-10-11T16:09:00.039Z,16.84
2022-10-11T16:11:26.839Z,16.62
2022-10-11T16:13:53.553Z,16.42
2022-10-11T16:16:20.281Z,16.24
2022-10-11T16:18:50.279Z,16.05
2022-10-11T16:21:17.231Z,15.82
2022-10-11T16:23:44.020Z,15.61
2022-10-11T16:26:16.503Z,15.43
2022-10-11T16:28:44.099Z,15.25
2022-10-11T16:31:20.947Z,15.09
2022-10-11T16:33:48.652Z,14.93
2022-10-11T16:36:40.212Z,14.80
2022-10-11T16:39:15.017Z,14.61
2022-10-11T16:41:42.870Z,14.45
2022-10-11T16:44:15.412Z,14.25
2022-10-11T16:46:47.675Z,14.09
2022-10-11T16:49:21.972Z,13.94
2022-10-11T16:51:51.476Z,13.81
2022-10-11T16:54:20.468Z,13.69
2022-10-11T16:56:51.512Z,13.54
2022-10-11T16:59:18.523Z,13.42
2022-10-11T17:01:45.914Z,13.31
2022-10-11T17:04:13.466Z,13.18
2022-10-11T17:06:41.201Z,13.03
2022-10-11T17:09:07.967Z,12.90
2022-10-11T17:11:34.693Z,12.79
2022-10-11T17:14:02.411Z,12.67
2022-10-11T17:16:29.414Z,12.58
2022-10-11T17:18:56.216Z,12.50
2022-10-11T17:21:24.148Z,12.43
2022-10-11T17:23:51.333Z,12.37
2022-10-11T17:26:26.298Z,12.29
2022-10-11T17:28:58.882Z,12.21
2022-10-11T17:31:27.917Z,12.13
2022-10-11T17:33:57.559Z,12.07
2022-10-11T17:36:31.731Z,11.98
2022-10-11T17:39:01.713Z,11.91
2022-10-11T17:41:31.984Z,11.85
2022-10-11T17:44:01.234Z,11.79
2022-10-11T17:46:32.323Z,11.67
2022-10-11T17:49:04.859Z,11.56
2022-10-11T17:51:32.910Z,11.49
2022-10-11T17:53:59.745Z,11.43
2022-10-11T17:56:31.352Z,11.36
2022-10-11T17:59:00.892Z,11.32
2022-10-11T18:01:29.674Z,11.27
2022-10-11T18:04:00.901Z,11.22
2022-10-11T18:06:31.858Z,11.16
2022-10-11T18:09:04.258Z,11.10
2022-10-11T18:11:31.667Z,11.01
2022-10-11T18:13:58.562Z,10.93
2022-10-11T18:16:30.406Z,10.88
2022-10-11T18:18:58.552Z,10.80
2022-10-11T18:21:29.974Z,10.73
2022-10-11T18:24:03.627Z,10.64
2022-10-11T18:26:31.195Z,10.54
2022-10-11T18:28:59.295Z,10.46
2022-10-11T18:31:30.579Z,10.38
2022-10-11T18:33:58.742Z,10.35
2022-10-11T18:36:28.974Z,10.31
2022-10-11T18:39:01.047Z,10.27
2022-10-11T18:41:31.974Z,10.21
2022-10-11T18:44:04.256Z,10.11
2022-10-11T18:46:32.481Z,10.02
2022-10-11T18:49:02.130Z,9.98
2022-10-11T18:51:36.369Z,9.97
2022-10-11T18:54:05.508Z,9.94
2022-10-11T18:56:34.536Z,9.91
2022-10-11T18:59:01.299Z,9.89
2022-10-11T19:01:44.626Z,9.82
2022-10-11T19:04:19.123Z,9.73
2022-10-11T19:06:57.315Z,9.64
2022-10-11T19:09:40.952Z,9.57
2022-10-11T19:12:20.293Z,9.55
2022-10-11T19:14:53.243Z,9.50
2022-10-11T19:17:39.937Z,9.44
2022-10-11T19:20:16.116Z,9.40
2022-10-11T19:22:49.923Z,9.39
2022-10-11T19:25:22.006Z,9.38
2022-10-11T19:27:54.449Z,9.37
2022-10-11T19:30:32.263Z,9.33
2022-10-11T19:33:11.467Z,9.27
2022-10-11T19:35:59.242Z,9.23
2022-10-11T19:38:36.849Z,9.18
2022-10-11T19:41:10.221Z,9.11
2022-10-11T19:43:46.834Z,9.07
2022-10-11T19:46:50.499Z,9.01
2022-10-11T19:49:28.076Z,8.94
2022-10-11T19:52:14.790Z,8.89
2022-10-11T19:54:53.066Z,8.86
2022-10-11T19:57:39.788Z,8.84
2022-10-11T20:00:25.405Z,8.82
2022-10-11T20:02:52.389Z,8.81
2022-10-11T20:05:19.189Z,8.79
2022-10-11T20:07:45.990Z,8.77
2022-10-11T20:10:12.820Z,8.74
2022-10-11T20:12:45.042Z,8.73
2022-10-11T20:15:12.618Z,8.75
2022-10-11T20:17:48.610Z,8.76
2022-10-11T20:20:18.186Z,8.74
2022-10-11T20:22:45.134Z,8.73
2022-10-11T20:25:12.069Z,8.70
2022-10-11T20:27:42.382Z,8.68
2022-10-11T20:30:10.284Z,8.65
2022-10-11T20:32:37.021Z,8.62
2022-10-11T20:35:04.106Z,8.63
2022-10-11T20:37:31.189Z,8.61
2022-10-11T20:39:58.505Z,8.60
2022-10-11T20:42:28.929Z,8.57
2022-10-11T20:44:56.723Z,8.54
2022-10-11T20:47:23.471Z,8.53
2022-10-11T20:49:50.240Z,8.53
2022-10-11T20:52:17.106Z,8.50
2022-10-11T20:54:43.929Z,8.46
2022-10-11T20:57:10.741Z,8.45
2022-10-11T20:59:38.001Z,8.45
2022-10-11T21:02:04.731Z,8.42
2022-10-11T21:04:31.467Z,8.40
2022-10-11T21:06:58.175Z,8.38
2022-10-11T21:09:25.006Z,8.36
2022-10-11T21:11:51.749Z,8.33
2022-10-11T21:14:18.587Z,8.30
2022-10-11T21:16:45.367Z,8.23
2022-10-11T21:19:15.998Z,8.19
2022-10-11T21:21:46.439Z,8.15
2022-10-11T21:24:15.200Z,8.08
2022-10-11T21:26:41.902Z,8.00
2022-10-11T21:29:08.706Z,7.93
2022-10-11T21:31:35.974Z,7.88
2022-10-11T21:34:05.125Z,7.83
2022-10-11T21:36:31.961Z,7.80
2022-10-11T21:38:58.751Z,7.77
2022-10-11T21:41:30.060Z,7.78
2022-10-11T21:43:57.888Z,7.77
2022-10-11T21:49:19.240Z,7.71
2022-10-11T21:51:46.308Z,7.67
2022-10-11T21:54:13.074Z,7.65
2022-10-11T21:56:39.894Z,7.61
2022-10-11T21:59:11.124Z,7.59
2022-10-11T22:01:41.731Z,7.55
2022-10-11T22:04:10.844Z,7.53
2022-10-11T22:06:38.769Z,7.50
2022-10-11T22:09:07.713Z,7.43
2022-10-11T22:11:35.413Z,7.35
2022-10-11T22:14:02.653Z,7.29
2022-10-11T22:16:29.785Z,7.25
2022-10-11T22:18:56.915Z,7.23
2022-10-11T22:21:23.921Z,7.18
2022-10-11T22:23:53.939Z,7.07
2022-10-11T22:26:30.567Z,7.01
2022-10-11T22:28:59.519Z,6.98
2022-10-11T22:31:26.752Z,6.94
2022-10-11T22:34:00.375Z,6.89
2022-10-11T22:36:30.424Z,6.85
2022-10-11T22:38:58.585Z,6.79
2022-10-11T22:41:25.892Z,6.75
2022-10-11T22:43:52.977Z,6.74
2022-10-11T22:46:19.925Z,6.74
2022-10-11T22:48:46.902Z,6.76
2022-10-11T22:51:14.474Z,6.76
2022-10-11T22:53:41.628Z,6.76
2022-10-11T22:56:09.334Z,6.74
2022-10-11T22:58:36.884Z,6.69
2022-10-11T23:01:12.798Z,6.65
2022-10-11T23:03:40.039Z,6.60
2022-10-11T23:06:07.725Z,6.59
2022-10-11T23:08:34.797Z,6.60
2022-10-11T23:11:07.132Z,6.61
2022-10-11T23:13:35.190Z,6.61
2022-10-11T23:16:10.701Z,6.63
2022-10-11T23:18:38.278Z,6.64
2022-10-11T23:21:06.876Z,6.68
2022-10-11T23:23:34.513Z,6.67
2022-10-11T23:26:02.222Z,6.66
2022-10-11T23:28:29.407Z,6.66
2022-10-11T23:30:56.655Z,6.64
2022-10-11T23:33:23.703Z,6.58
2022-10-11T23:35:51.010Z,6.57
2022-10-11T23:38:18.146Z,6.55
2022-10-11T23:40:45.184Z,6.53
2022-10-11T23:43:12.355Z,6.53
2022-10-11T23:45:39.496Z,6.52
2022-10-11T23:48:06.641Z,6.51
2022-10-11T23:50:33.676Z,6.47
2022-10-11T23:53:00.713Z,6.45
2022-10-11T23:55:27.804Z,6.45
2022-10-11T23:57:54.849Z,6.44
